Cumberland, WI

10:02 PM CDT on June 25, 2017 (GMT -0500)
Cumberland Municipal

Weather History for KUBE - September, 2012

Change the Weather History Date:

Saturday, September 1, 2012

  Actual Average (KRPD) Record (KRPD)
Temperature  
Mean Temperature 66 °F -  
Max Temperature 80 °F 75 °F 87 °F (2003)
Min Temperature 51 °F 53 °F 44 °F (2001)
Growing Degree Days 16 (Base 50)    
Moisture  
Dew Point 47 °F    
Average Humidity 55    
Maximum Humidity 82    
Minimum Humidity 26    
Precipitation  
Precipitation 0.00 in - - ()
Sea Level Pressure  
Sea Level Pressure 30.14 in    
Wind  
Wind Speed 4 mph (East)    
Max Wind Speed 12 mph    
Max Gust Speed 16 mph    
Visibility 10 miles    
Events      
Averages and records for this station are not official NWS values.
T = Trace of Precipitation, MM = Missing Value Source: NWS Daily Summary

Daily Weather History Graph

Daily Weather History Graph

Search for Another Location

Airport or City:

Trip Planner

Search our weather history database for the weather conditions in past years. The results will help you decide how hot, cold, wet, or windy it might be!

Date:

Astronomy

Sep. 01, 2012 Rise Set
Actual Time 6:29 AM CDT 7:44 PM CDT
Civil Twilight 5:59 AM CDT 8:15 PM CDT
Nautical Twilight 5:22 AM CDT 8:51 PM CDT
Astronomical Twilight 4:43 AM CDT 9:30 PM CDT
Moon 7:53 PM CDT (9/1) 7:44 AM CDT (9/1)
Length of Visible Light 14h 15m
Length of Day
13h 14m
Full, 99% of the Moon is Illuminated
Sep 1
Full
Sep 8
Last Quarter
Sep 15
New
Sep 22
First Quarter
Sep 29
Full

Hourly Weather History & Observations

Time (CDT) Temp. Dew Point Humidity Pressure Visibility Wind Dir Wind Speed Gust Speed Precip Events Conditions
12:15 AM 55.4 °F 44.6 °F 67% 30.16 in 10.0 mi NE 3.5 mph - N/A   Clear
12:35 AM 53.6 °F 46.4 °F 77% 30.16 in 10.0 mi ENE 3.5 mph - N/A   Clear
12:55 AM 51.8 °F 46.4 °F 82% 30.16 in 10.0 mi Calm Calm - N/A   Clear
1:15 AM 53.6 °F 46.4 °F 77% 30.16 in 10.0 mi NE 4.6 mph - N/A   Clear
1:35 AM 55.4 °F 46.4 °F 72% 30.16 in 10.0 mi ENE 4.6 mph - N/A   Clear
1:55 AM 55.4 °F 46.4 °F 72% 30.16 in 10.0 mi ENE 3.5 mph - N/A   Clear
2:15 AM 53.6 °F 46.4 °F 77% 30.16 in 10.0 mi ENE 4.6 mph - N/A   Clear
2:35 AM 57.2 °F 46.4 °F 67% 30.16 in 10.0 mi East 3.5 mph - N/A   Clear
2:55 AM 57.2 °F 44.6 °F 63% 30.17 in 10.0 mi Calm Calm - N/A   Clear
3:15 AM 55.4 °F 44.6 °F 67% 30.17 in 10.0 mi Calm Calm - N/A   Clear
3:35 AM 53.6 °F 44.6 °F 72% 30.17 in 10.0 mi NE 3.5 mph - N/A   Clear
3:55 AM 55.4 °F 44.6 °F 67% 30.17 in 10.0 mi Calm Calm - N/A   Clear
4:15 AM 51.8 °F 44.6 °F 76% 30.17 in 10.0 mi ENE 3.5 mph - N/A   Clear
4:35 AM 53.6 °F 46.4 °F 77% 30.17 in 10.0 mi Calm Calm - N/A   Clear
5:15 AM 53.6 °F 46.4 °F 77% 30.17 in 10.0 mi East 3.5 mph - N/A   Clear
5:35 AM 53.6 °F 46.4 °F 77% 30.18 in 10.0 mi NE 3.5 mph - N/A   Clear
5:55 AM 53.6 °F 44.6 °F 72% 30.18 in 10.0 mi ENE 3.5 mph - N/A   Clear
6:15 AM 53.6 °F 44.6 °F 72% 30.18 in 10.0 mi ENE 4.6 mph - N/A   Clear
6:35 AM 51.8 °F 44.6 °F 76% 30.19 in 10.0 mi ENE 4.6 mph - N/A   Clear
6:55 AM 51.8 °F 44.6 °F 76% 30.19 in 10.0 mi ENE 3.5 mph - N/A   Clear
7:15 AM 53.6 °F 46.4 °F 77% 30.19 in 10.0 mi East 5.8 mph - N/A   Clear
7:35 AM 55.4 °F 46.4 °F 72% 30.20 in 10.0 mi East 5.8 mph - N/A   Clear
7:55 AM 57.2 °F 48.2 °F 72% 30.20 in 10.0 mi East 4.6 mph - N/A   Clear
8:15 AM 59.0 °F 50.0 °F 72% 30.20 in 10.0 mi East 4.6 mph - N/A   Clear
8:35 AM 60.8 °F 50.0 °F 68% 30.20 in 10.0 mi East 3.5 mph - N/A   Clear
8:55 AM 62.6 °F 51.8 °F 68% 30.20 in 10.0 mi East 4.6 mph - N/A   Clear
9:15 AM 64.4 °F 51.8 °F 64% 30.20 in 10.0 mi East 5.8 mph - N/A   Clear
9:35 AM 68.0 °F 50.0 °F 52% 30.20 in 10.0 mi ESE 6.9 mph - N/A   Clear
9:55 AM 69.8 °F 50.0 °F 49% 30.20 in 10.0 mi ESE 6.9 mph - N/A   Clear
10:15 AM 71.6 °F 50.0 °F 46% 30.20 in 10.0 mi ESE 4.6 mph - N/A   Clear
10:35 AM 71.6 °F 50.0 °F 46% 30.20 in 10.0 mi ESE 5.8 mph - N/A   Clear
10:55 AM 73.4 °F 48.2 °F 41% 30.19 in 10.0 mi ESE 8.1 mph - N/A   Clear
11:15 AM 73.4 °F 48.2 °F 41% 30.19 in 10.0 mi SE 8.1 mph - N/A   Clear
11:35 AM 73.4 °F 46.4 °F 38% 30.19 in 10.0 mi SE 9.2 mph - N/A   Clear
12:15 PM 77.0 °F 46.4 °F 34% 30.17 in 10.0 mi East 5.8 mph - N/A   Clear
12:35 PM 77.0 °F 46.4 °F 34% 30.17 in 10.0 mi ESE 10.4 mph - N/A   Clear
12:55 PM 77.0 °F 44.6 °F 32% 30.17 in 10.0 mi East 11.5 mph - N/A   Clear
1:15 PM 78.8 °F 44.6 °F 30% 30.16 in 10.0 mi ESE 9.2 mph - N/A   Clear
1:35 PM 78.8 °F 44.6 °F 30% 30.15 in 10.0 mi East 5.8 mph - N/A   Clear
1:55 PM 78.8 °F 44.6 °F 30% 30.15 in 10.0 mi ENE 11.5 mph - N/A   Clear
2:15 PM 78.8 °F 42.8 °F 28% 30.14 in 10.0 mi East 6.9 mph 16.1 mph N/A   Clear
2:35 PM 80.6 °F 44.6 °F 28% 30.13 in 10.0 mi ENE 8.1 mph - N/A   Clear
2:55 PM 80.6 °F 44.6 °F 28% 30.12 in 10.0 mi East 4.6 mph - N/A   Clear
3:15 PM 80.6 °F 44.6 °F 28% 30.11 in 10.0 mi East 8.1 mph - N/A   Clear
3:35 PM 80.6 °F 44.6 °F 28% 30.10 in 10.0 mi East 9.2 mph 16.1 mph N/A   Clear
3:55 PM 80.6 °F 44.6 °F 28% 30.10 in 10.0 mi NE 6.9 mph - N/A   Clear
4:15 PM 80.6 °F 44.6 °F 28% 30.09 in 10.0 mi ENE 8.1 mph - N/A   Clear
4:35 PM 80.6 °F 42.8 °F 26% 30.09 in 10.0 mi ESE 4.6 mph - N/A   Clear
4:55 PM 80.6 °F 42.8 °F 26% 30.08 in 10.0 mi East 5.8 mph - N/A   Clear
5:15 PM 80.6 °F 42.8 °F 26% 30.08 in 10.0 mi East 5.8 mph - N/A   Clear
5:35 PM 80.6 °F 44.6 °F 28% 30.08 in 10.0 mi East 4.6 mph - N/A   Clear
5:55 PM 78.8 °F 44.6 °F 30% 30.07 in 10.0 mi East 6.9 mph - N/A   Clear
6:15 PM 78.8 °F 46.4 °F 32% 30.07 in 10.0 mi ENE 3.5 mph - N/A   Clear
6:35 PM 77.0 °F 50.0 °F 39% 30.07 in 10.0 mi East 4.6 mph - N/A   Clear
6:55 PM 73.4 °F 50.0 °F 44% 30.06 in 10.0 mi NE 4.6 mph - N/A   Clear
7:15 PM 71.6 °F 50.0 °F 46% 30.06 in 10.0 mi NE 4.6 mph - N/A   Clear
7:35 PM 71.6 °F 50.0 °F 46% 30.07 in 10.0 mi NE 3.5 mph - N/A   Clear
7:55 PM 68.0 °F 50.0 °F 52% 30.07 in 10.0 mi ENE 3.5 mph - N/A   Clear
8:15 PM 66.2 °F 51.8 °F 60% 30.07 in 10.0 mi ENE 3.5 mph - N/A   Clear
8:35 PM 64.4 °F 53.6 °F 68% 30.07 in 10.0 mi NE 4.6 mph - N/A   Clear
8:55 PM 62.6 °F 53.6 °F 72% 30.08 in 10.0 mi NE 3.5 mph - N/A   Clear
9:15 PM 64.4 °F 53.6 °F 68% 30.08 in 10.0 mi East 3.5 mph - N/A   Clear
9:35 PM 59.0 °F 51.8 °F 77% 30.07 in 10.0 mi East 3.5 mph - N/A   Clear
9:55 PM 62.6 °F 53.6 °F 72% 30.08 in 10.0 mi East 4.6 mph - N/A   Clear
10:15 PM 62.6 °F 51.8 °F 68% 30.08 in 10.0 mi East 5.8 mph - N/A   Clear
10:35 PM 62.6 °F 51.8 °F 68% 30.07 in 10.0 mi East 4.6 mph - N/A   Clear
10:55 PM 60.8 °F 50.0 °F 68% 30.07 in 10.0 mi Calm Calm - N/A   Clear
11:15 PM 60.8 °F 50.0 °F 68% 30.07 in 10.0 mi Calm Calm - N/A   Clear
11:35 PM 62.6 °F 48.2 °F 59% 30.08 in 10.0 mi ESE 3.5 mph - N/A   Clear
11:55 PM 59.0 °F 50.0 °F 72% 30.08 in 10.0 mi ESE 3.5 mph - N/A   Clear